createdAt,value
2022-08-11T00:01:53.667Z,24.72
2022-08-11T00:04:23.205Z,24.74
2022-08-11T00:06:52.139Z,24.72
2022-08-11T00:09:21.842Z,24.71
2022-08-11T00:11:50.756Z,24.68
2022-08-11T00:14:21.251Z,24.61
2022-08-11T00:16:56.767Z,24.59
2022-08-11T00:20:12.232Z,24.55
2022-08-11T00:22:21.450Z,24.52
2022-08-11T00:24:54.733Z,24.47
2022-08-11T00:27:33.366Z,24.41
2022-08-11T00:30:03.147Z,24.33
2022-08-11T00:32:31.770Z,24.32
2022-08-11T00:35:55.336Z,24.28
2022-08-11T00:37:50.575Z,24.20
2022-08-11T00:40:21.287Z,24.10
2022-08-11T00:42:56.406Z,23.98
2022-08-11T00:45:28.267Z,23.89
2022-08-11T00:48:01.928Z,23.87
2022-08-11T00:50:36.654Z,23.89
2022-08-11T00:53:09.639Z,23.87
2022-08-11T00:55:55.412Z,23.86
2022-08-11T00:58:53.320Z,23.88
2022-08-11T01:01:29.941Z,23.86
2022-08-11T01:04:25.009Z,23.89
2022-08-11T01:08:01.905Z,23.90
2022-08-11T01:10:52.852Z,23.83
2022-08-11T01:13:36.272Z,23.83
2022-08-11T01:16:14.640Z,23.85
2022-08-11T01:19:13.076Z,23.82
2022-08-11T01:22:28.816Z,23.77
2022-08-11T01:25:57.501Z,23.68
2022-08-11T01:28:53.334Z,23.59
2022-08-11T01:31:44.748Z,23.51
2022-08-11T01:34:49.873Z,23.52
2022-08-11T01:37:43.624Z,23.49
2022-08-11T01:40:39.748Z,23.48
2022-08-11T01:44:13.110Z,23.44
2022-08-11T01:46:45.152Z,23.38
2022-08-11T01:50:06.742Z,23.44
2022-08-11T01:52:16.599Z,23.46
2022-08-11T01:54:46.234Z,23.44
2022-08-11T01:57:22.125Z,23.42
2022-08-11T01:59:51.850Z,23.35
2022-08-11T02:02:45.978Z,23.23
2022-08-11T02:05:27.522Z,23.20
2022-08-11T02:08:01.814Z,23.13
2022-08-11T02:10:50.409Z,23.09
2022-08-11T02:13:34.089Z,23.06
2022-08-11T02:16:09.801Z,23.07
2022-08-11T02:18:53.413Z,23.07
2022-08-11T02:21:42.780Z,23.02
2022-08-11T02:24:15.589Z,22.95
2022-08-11T02:26:45.803Z,22.93
2022-08-11T02:29:19.810Z,22.88
2022-08-11T02:32:28.593Z,22.89
2022-08-11T02:35:03.124Z,22.87
2022-08-11T02:37:38.513Z,22.87
2022-08-11T02:40:20.991Z,22.88
2022-08-11T02:43:04.309Z,22.83
2022-08-11T02:45:54.670Z,22.84
2022-08-11T02:48:57.376Z,22.79
2022-08-11T02:51:34.379Z,22.70
2022-08-11T02:54:09.090Z,22.68
2022-08-11T02:56:44.991Z,22.65
2022-08-11T02:59:41.830Z,22.73
2022-08-11T03:02:13.528Z,22.72
2022-08-11T03:04:48.209Z,22.72
2022-08-11T03:07:29.112Z,22.74
2022-08-11T03:10:01.545Z,22.75
2022-08-11T03:12:53.575Z,22.79
2022-08-11T03:15:41.372Z,22.78
2022-08-11T03:18:17.761Z,22.78
2022-08-11T03:20:47.396Z,22.75
2022-08-11T03:23:20.600Z,22.70
2022-08-11T03:25:52.832Z,22.59
2022-08-11T03:28:30.316Z,22.53
2022-08-11T03:31:05.765Z,22.52
2022-08-11T03:33:52.916Z,22.53
2022-08-11T03:37:15.169Z,22.49
2022-08-11T03:39:33.237Z,22.46
2022-08-11T03:42:06.764Z,22.52
2022-08-11T03:44:47.571Z,22.53
2022-08-11T03:47:32.067Z,22.48
2022-08-11T03:50:08.913Z,22.38
2022-08-11T03:52:50.243Z,22.34
2022-08-11T03:55:25.114Z,22.31
2022-08-11T03:58:42.019Z,22.29
2022-08-11T04:02:07.990Z,22.24
2022-08-11T04:05:11.289Z,22.19
2022-08-11T04:08:26.696Z,22.18
2022-08-11T04:11:19.694Z,22.19
2022-08-11T04:14:46.302Z,22.17
2022-08-11T04:17:46.439Z,22.11
2022-08-11T04:20:31.137Z,22.09
2022-08-11T04:24:36.255Z,22.07
2022-08-11T04:26:39.086Z,22.02
2022-08-11T04:29:20.151Z,21.98
2022-08-11T04:32:05.331Z,21.99
2022-08-11T04:34:51.115Z,21.98
2022-08-11T04:37:36.268Z,21.96
2022-08-11T04:40:13.422Z,21.81
2022-08-11T04:43:21.910Z,21.78
2022-08-11T04:46:10.867Z,21.69
2022-08-11T04:49:06.004Z,21.64
2022-08-11T04:52:07.059Z,21.62
2022-08-11T04:55:03.999Z,21.61
2022-08-11T04:57:59.064Z,21.60
2022-08-11T05:00:47.010Z,21.59
2022-08-11T05:03:37.478Z,21.62
2022-08-11T05:06:28.231Z,21.62
2022-08-11T05:09:12.867Z,21.61
2022-08-11T05:12:01.665Z,21.62
2022-08-11T05:14:52.305Z,21.60
2022-08-11T05:17:53.779Z,21.59
2022-08-11T05:20:39.277Z,21.56
2022-08-11T05:23:25.451Z,21.54
2022-08-11T05:26:47.502Z,21.41
2022-08-11T05:29:21.355Z,21.40
2022-08-11T05:32:09.782Z,21.37
2022-08-11T05:34:54.237Z,21.36
2022-08-11T05:37:27.281Z,21.38
2022-08-11T05:40:14.960Z,21.40
2022-08-11T05:43:02.072Z,21.42
2022-08-11T05:45:58.209Z,21.41
2022-08-11T05:48:51.862Z,21.41
2022-08-11T05:51:37.269Z,21.45
2022-08-11T05:54:28.169Z,21.49
2022-08-11T05:56:58.360Z,21.53
2022-08-11T05:59:27.223Z,21.57
2022-08-11T06:02:01.594Z,21.65
2022-08-11T06:04:29.816Z,21.71
2022-08-11T06:06:58.673Z,21.75
2022-08-11T06:09:28.864Z,21.81
2022-08-11T06:11:59.466Z,21.83
2022-08-11T06:14:27.619Z,21.90
2022-08-11T06:17:00.269Z,21.95
2022-08-11T06:19:35.914Z,22.01
2022-08-11T06:22:05.294Z,22.08
2022-08-11T06:24:33.552Z,22.17
2022-08-11T06:27:12.325Z,22.25
2022-08-11T06:29:54.894Z,22.32
2022-08-11T06:32:26.702Z,22.39
2022-08-11T06:35:02.682Z,22.50
2022-08-11T06:37:37.306Z,22.58
2022-08-11T06:40:08.517Z,22.68
2022-08-11T06:42:44.666Z,22.79
2022-08-11T06:45:20.329Z,22.89
2022-08-11T06:47:49.762Z,23.00
2022-08-11T06:50:36.231Z,23.14
2022-08-11T06:53:06.574Z,23.24
2022-08-11T06:55:55.596Z,23.37
2022-08-11T06:58:45.742Z,23.52
2022-08-11T07:01:15.401Z,23.67
2022-08-11T07:03:46.534Z,23.81
2022-08-11T07:06:23.967Z,23.96
2022-08-11T07:09:22.314Z,24.14
2022-08-11T07:12:33.759Z,24.31
2022-08-11T07:15:19.594Z,24.45
2022-08-11T07:18:10.302Z,24.56
2022-08-11T07:21:01.738Z,24.66
2022-08-11T07:23:47.941Z,24.72
2022-08-11T07:26:33.258Z,24.78
2022-08-11T07:29:01.440Z,24.81
2022-08-11T07:31:35.784Z,24.94
2022-08-11T07:34:15.869Z,25.07
2022-08-11T07:36:51.717Z,25.19
2022-08-11T07:39:22.157Z,25.29
2022-08-11T07:41:50.710Z,25.43
2022-08-11T07:44:18.922Z,25.52
2022-08-11T07:47:06.043Z,25.66
2022-08-11T07:49:53.484Z,25.79
2022-08-11T07:52:29.825Z,25.94
2022-08-11T07:54:59.210Z,26.08
2022-08-11T07:58:14.510Z,26.20
2022-08-11T08:00:54.877Z,26.38
2022-08-11T08:03:53.985Z,26.53
2022-08-11T08:06:40.376Z,26.72
2022-08-11T08:09:27.335Z,26.87
2022-08-11T08:12:13.147Z,27.00
2022-08-11T08:14:58.648Z,27.14
2022-08-11T08:18:08.572Z,27.31
2022-08-11T08:20:36.605Z,27.45
2022-08-11T08:23:04.897Z,27.64
2022-08-11T08:25:35.601Z,27.78
2022-08-11T08:28:07.061Z,27.90
2022-08-11T08:30:51.013Z,28.02
2022-08-11T08:33:21.537Z,28.15
2022-08-11T08:35:54.357Z,28.26
2022-08-11T08:38:23.932Z,28.39
2022-08-11T08:40:56.021Z,28.49
2022-08-11T08:43:25.059Z,28.61
2022-08-11T08:45:54.739Z,28.70
2022-08-11T08:48:22.918Z,28.81
2022-08-11T08:51:10.961Z,28.92
2022-08-11T08:53:52.359Z,29.06
2022-08-11T08:56:28.276Z,29.23
2022-08-11T08:58:56.635Z,29.35
2022-08-11T09:01:27.355Z,29.48
2022-08-11T09:04:04.879Z,29.61
2022-08-11T09:06:39.858Z,29.74
2022-08-11T09:09:09.587Z,29.87
2022-08-11T09:11:57.466Z,29.97
2022-08-11T09:14:46.774Z,30.11
2022-08-11T09:17:17.671Z,30.23
2022-08-11T09:19:49.524Z,30.33
2022-08-11T09:22:43.325Z,30.48
2022-08-11T09:25:29.122Z,30.61
2022-08-11T09:27:58.837Z,30.70
2022-08-11T09:30:27.704Z,30.77
2022-08-11T09:32:59.337Z,30.88
2022-08-11T09:35:27.795Z,31.00
2022-08-11T09:38:13.721Z,31.09
2022-08-11T09:40:44.815Z,31.07
2022-08-11T09:43:35.412Z,31.01
2022-08-11T09:46:04.197Z,30.99
2022-08-11T09:48:33.438Z,31.02
2022-08-11T09:51:02.149Z,31.04
2022-08-11T09:53:35.201Z,31.10
2022-08-11T09:56:26.729Z,31.22
2022-08-11T09:58:56.074Z,31.36
2022-08-11T10:01:30.361Z,31.55
2022-08-11T10:04:02.269Z,31.71
2022-08-11T10:06:48.668Z,31.86
2022-08-11T10:09:22.957Z,32.05
2022-08-11T10:11:57.744Z,32.25
2022-08-11T10:14:48.801Z,32.40
2022-08-11T10:17:18.236Z,32.59
2022-08-11T10:20:02.005Z,32.76
2022-08-11T10:22:50.549Z,32.96
2022-08-11T10:25:36.485Z,33.08
2022-08-11T10:28:16.973Z,33.22
2022-08-11T10:31:13.767Z,33.42
2022-08-11T10:34:01.710Z,33.68
2022-08-11T10:36:31.210Z,33.94
2022-08-11T10:38:59.589Z,34.25
2022-08-11T10:42:07.440Z,34.53
2022-08-11T10:44:35.076Z,34.80
2022-08-11T10:47:22.394Z,35.04
2022-08-11T10:50:11.046Z,35.32
2022-08-11T10:52:56.732Z,35.55
2022-08-11T10:55:42.783Z,35.67
2022-08-11T10:58:28.513Z,35.83
2022-08-11T11:00:58.987Z,35.98
2022-08-11T11:03:29.891Z,36.15
2022-08-11T11:06:27.549Z,36.29
2022-08-11T11:08:58.809Z,36.25
2022-08-11T11:11:56.751Z,36.22
2022-08-11T11:14:49.220Z,36.25
2022-08-11T11:17:41.152Z,36.32
2022-08-11T11:20:37.003Z,36.25
2022-08-11T11:23:04.517Z,36.41
2022-08-11T11:26:27.434Z,36.59
2022-08-11T11:29:25.730Z,36.68
2022-08-11T11:32:00.450Z,36.85
2022-08-11T11:34:53.012Z,36.96
2022-08-11T11:37:24.124Z,37.05
2022-08-11T11:39:53.593Z,37.18
2022-08-11T11:42:23.563Z,37.29
2022-08-11T11:44:55.850Z,37.41
2022-08-11T11:47:25.042Z,37.54
2022-08-11T11:49:54.853Z,37.68
2022-08-11T11:52:24.645Z,37.84
2022-08-11T11:54:54.978Z,38.01
2022-08-11T11:57:42.254Z,38.20
2022-08-11T12:00:47.940Z,38.34
2022-08-11T12:03:19.581Z,38.43
2022-08-11T12:05:50.253Z,38.58
2022-08-11T12:08:27.235Z,38.73
2022-08-11T12:11:19.003Z,38.92
2022-08-11T12:13:47.603Z,39.10
2022-08-11T12:16:33.268Z,39.22
2022-08-11T12:19:04.410Z,39.39
2022-08-11T12:21:33.440Z,39.54
2022-08-11T12:24:21.683Z,39.70
2022-08-11T12:27:16.596Z,39.85
2022-08-11T12:29:50.255Z,40.01
2022-08-11T12:32:23.028Z,40.13
2022-08-11T12:34:51.262Z,40.23
2022-08-11T12:37:23.755Z,40.40
2022-08-11T12:40:49.743Z,40.49
2022-08-11T12:43:36.889Z,40.56
2022-08-11T12:46:09.327Z,40.62
2022-08-11T12:49:00.766Z,40.76
2022-08-11T12:52:12.925Z,40.93
2022-08-11T12:54:43.242Z,41.14
2022-08-11T12:57:37.195Z,41.32
2022-08-11T13:00:24.039Z,41.54
2022-08-11T13:03:10.119Z,41.80
2022-08-11T13:05:44.326Z,42.02
2022-08-11T13:08:14.043Z,42.32
2022-08-11T13:11:00.149Z,42.60
2022-08-11T13:13:53.663Z,42.84
2022-08-11T13:16:20.778Z,42.89
2022-08-11T13:18:51.282Z,42.82
2022-08-11T13:21:23.002Z,42.91
2022-08-11T13:24:00.895Z,42.96
2022-08-11T13:26:47.212Z,42.96
2022-08-11T13:29:24.789Z,42.84
2022-08-11T13:31:56.457Z,42.67
2022-08-11T13:34:28.226Z,42.60
2022-08-11T13:36:57.293Z,42.74
2022-08-11T13:39:28.886Z,42.94
2022-08-11T13:41:59.543Z,43.21
2022-08-11T13:44:32.403Z,43.34
2022-08-11T13:47:02.560Z,43.34
2022-08-11T13:49:32.196Z,43.41
2022-08-11T13:52:04.495Z,43.56
2022-08-11T13:54:33.833Z,43.55
2022-08-11T13:57:03.237Z,43.41
2022-08-11T13:59:45.275Z,43.36
2022-08-11T14:02:30.226Z,43.31
2022-08-11T14:05:02.991Z,43.50
2022-08-11T14:07:35.785Z,43.84
2022-08-11T14:10:08.754Z,44.02
2022-08-11T14:12:57.641Z,44.29
2022-08-11T14:15:34.748Z,44.40
2022-08-11T14:18:09.280Z,44.44
2022-08-11T14:20:57.829Z,44.39
2022-08-11T14:23:36.139Z,44.33
2022-08-11T14:26:22.885Z,44.38
2022-08-11T14:28:53.368Z,44.47
2022-08-11T14:31:23.592Z,44.49
2022-08-11T14:33:58.143Z,44.75
2022-08-11T14:36:28.252Z,44.85
2022-08-11T14:38:56.555Z,45.00
2022-08-11T14:42:10.960Z,44.92
2022-08-11T14:44:49.970Z,44.98
2022-08-11T14:47:23.843Z,44.99
2022-08-11T14:50:10.339Z,45.11
2022-08-11T14:52:45.175Z,45.06
2022-08-11T14:55:31.550Z,44.94
2022-08-11T14:57:59.808Z,44.81
2022-08-11T15:00:35.529Z,44.91
2022-08-11T15:03:13.131Z,44.92
2022-08-11T15:05:56.015Z,44.99
2022-08-11T15:08:47.848Z,44.93
2022-08-11T15:11:36.702Z,44.93
2022-08-11T15:14:06.164Z,44.96
2022-08-11T15:16:53.114Z,45.14
2022-08-11T15:19:28.002Z,45.18
2022-08-11T15:22:14.276Z,45.10
2022-08-11T15:24:43.152Z,45.05
2022-08-11T15:27:31.409Z,45.24
2022-08-11T15:30:32.953Z,45.52
2022-08-11T15:33:25.108Z,45.61
2022-08-11T15:36:13.652Z,45.86
2022-08-11T15:38:46.068Z,46.07
2022-08-11T15:41:35.780Z,45.99
2022-08-11T15:44:44.453Z,45.91
2022-08-11T15:47:21.008Z,45.84
2022-08-11T15:50:12.077Z,45.85
2022-08-11T15:52:51.271Z,46.12
2022-08-11T15:55:19.896Z,46.27
2022-08-11T15:58:08.819Z,46.35
2022-08-11T16:00:58.913Z,46.31
2022-08-11T16:04:05.685Z,46.44
2022-08-11T16:06:36.030Z,46.41
2022-08-11T16:09:08.172Z,46.44
2022-08-11T16:11:46.759Z,46.50
2022-08-11T16:14:33.019Z,46.37
2022-08-11T16:17:01.209Z,46.13
2022-08-11T16:19:35.863Z,45.99
2022-08-11T16:22:07.332Z,45.78
2022-08-11T16:27:09.538Z,45.78
2022-08-11T16:27:27.403Z,45.92
2022-08-11T16:29:55.688Z,46.18
2022-08-11T16:32:25.828Z,46.42
2022-08-11T16:35:14.804Z,46.75
2022-08-11T16:38:00.526Z,47.10
2022-08-11T16:40:31.764Z,47.25
2022-08-11T16:43:20.856Z,47.25
2022-08-11T16:46:09.678Z,47.27
2022-08-11T16:48:39.135Z,47.33
2022-08-11T16:51:09.742Z,47.25
2022-08-11T16:53:46.020Z,46.96
2022-08-11T16:56:33.528Z,46.61
2022-08-11T16:59:15.578Z,46.34
2022-08-11T17:01:45.927Z,45.99
2022-08-11T17:04:35.882Z,45.97
2022-08-11T17:07:40.383Z,45.94
2022-08-11T17:10:53.286Z,45.83
2022-08-11T17:13:28.837Z,45.64
2022-08-11T17:16:07.809Z,45.50
2022-08-11T17:18:47.035Z,45.33
2022-08-11T17:21:21.104Z,45.05
2022-08-11T17:23:50.952Z,44.61
2022-08-11T17:26:24.137Z,44.30
2022-08-11T17:28:56.371Z,44.11
2022-08-11T17:31:42.223Z,43.89
2022-08-11T17:34:27.803Z,43.64
2022-08-11T17:36:56.234Z,43.26
2022-08-11T17:39:29.833Z,42.96
2022-08-11T17:42:15.627Z,42.69
2022-08-11T17:45:02.553Z,42.42
2022-08-11T17:47:48.178Z,42.34
2022-08-11T17:50:18.410Z,42.21
2022-08-11T17:53:04.287Z,42.18
2022-08-11T17:55:53.194Z,42.11
2022-08-11T17:58:39.471Z,41.93
2022-08-11T18:01:11.159Z,41.77
2022-08-11T18:03:40.813Z,41.67
2022-08-11T18:06:12.695Z,41.57
2022-08-11T18:09:02.544Z,41.40
2022-08-11T18:12:11.240Z,41.06
2022-08-11T18:14:55.516Z,40.62
2022-08-11T18:17:42.292Z,40.38
2022-08-11T18:20:28.644Z,40.13
2022-08-11T18:23:14.603Z,39.73
2022-08-11T18:26:02.447Z,39.47
2022-08-11T18:28:49.136Z,39.21
2022-08-11T18:31:34.540Z,38.88
2022-08-11T18:34:23.647Z,38.36
2022-08-11T18:37:19.542Z,37.78
2022-08-11T18:40:09.963Z,37.23
2022-08-11T18:42:55.439Z,36.82
2022-08-11T18:45:46.112Z,36.38
2022-08-11T18:48:34.142Z,36.06
2022-08-11T18:51:36.244Z,35.83
2022-08-11T18:54:25.981Z,35.57
2022-08-11T18:57:11.312Z,35.33
2022-08-11T18:59:57.798Z,35.10
2022-08-11T19:02:48.385Z,34.94
2022-08-11T19:06:06.089Z,34.76
2022-08-11T19:08:41.681Z,34.58
2022-08-11T19:11:27.444Z,34.41
2022-08-11T19:14:14.689Z,34.30
2022-08-11T19:17:00.067Z,34.21
2022-08-11T19:19:47.670Z,34.12
2022-08-11T19:22:33.538Z,34.00
2022-08-11T19:25:25.139Z,33.87
2022-08-11T19:28:11.984Z,33.75
2022-08-11T19:30:58.087Z,33.61
2022-08-11T19:34:00.222Z,33.47
2022-08-11T19:36:53.427Z,33.35
2022-08-11T19:39:39.335Z,33.25
2022-08-11T19:42:29.023Z,33.09
2022-08-11T19:45:16.469Z,32.92
2022-08-11T19:48:30.282Z,32.69
2022-08-11T19:51:07.473Z,32.50
2022-08-11T19:53:53.388Z,32.30
2022-08-11T19:56:39.354Z,32.09
2022-08-11T19:59:26.470Z,31.90
2022-08-11T20:02:13.186Z,31.72
2022-08-11T20:04:59.570Z,31.60
2022-08-11T20:07:45.445Z,31.51
2022-08-11T20:10:30.897Z,31.47
2022-08-11T20:13:21.631Z,31.41
2022-08-11T20:16:10.517Z,31.36
2022-08-11T20:18:56.033Z,31.33
2022-08-11T20:21:41.951Z,31.24
2022-08-11T20:24:27.774Z,31.20
2022-08-11T20:27:18.960Z,31.17
2022-08-11T20:30:10.760Z,31.18
2022-08-11T20:33:00.202Z,31.25
2022-08-11T20:35:45.666Z,31.25
2022-08-11T20:38:32.135Z,31.26
2022-08-11T20:41:17.637Z,31.25
2022-08-11T20:44:05.608Z,31.22
2022-08-11T20:46:56.989Z,31.19
2022-08-11T20:49:53.834Z,31.17
2022-08-11T20:52:48.166Z,31.11
2022-08-11T20:55:51.662Z,31.03
2022-08-11T21:01:44.776Z,30.89
2022-08-11T21:04:30.817Z,30.83
2022-08-11T21:07:27.098Z,30.74
2022-08-11T21:10:22.887Z,30.60
2022-08-11T21:13:26.197Z,30.38
2022-08-11T21:16:16.426Z,30.18
2022-08-11T21:19:14.810Z,29.95
2022-08-11T21:22:03.424Z,29.74
2022-08-11T21:24:50.771Z,29.60
2022-08-11T21:27:36.105Z,29.53
2022-08-11T21:30:21.889Z,29.48
2022-08-11T21:33:07.255Z,29.44
2022-08-11T21:35:52.990Z,29.36
2022-08-11T21:38:38.215Z,29.23
2022-08-11T21:41:25.282Z,29.05
2022-08-11T21:44:11.288Z,28.91
2022-08-11T21:46:57.288Z,28.83
2022-08-11T21:49:42.630Z,28.77
2022-08-11T21:52:27.928Z,28.72
2022-08-11T21:55:13.285Z,28.71
2022-08-11T21:58:03.140Z,28.66
2022-08-11T22:00:48.509Z,28.61
2022-08-11T22:03:41.107Z,28.55
2022-08-11T22:06:36.479Z,28.46
2022-08-11T22:09:22.371Z,28.41
2022-08-11T22:12:29.824Z,28.33
2022-08-11T22:15:15.283Z,28.25
2022-08-11T22:18:01.610Z,28.16
2022-08-11T22:20:46.934Z,28.03
2022-08-11T22:23:36.063Z,27.96
2022-08-11T22:26:22.320Z,27.89
2022-08-11T22:29:08.158Z,27.82
2022-08-11T22:31:55.929Z,27.77
2022-08-11T22:34:51.797Z,27.70
2022-08-11T22:37:39.378Z,27.65
2022-08-11T22:40:26.326Z,27.57
2022-08-11T22:43:11.644Z,27.47
2022-08-11T22:45:57.099Z,27.47
2022-08-11T22:48:44.467Z,27.42
2022-08-11T22:51:29.705Z,27.36
2022-08-11T22:54:15.128Z,27.27
2022-08-11T22:57:00.281Z,27.24
2022-08-11T22:59:45.694Z,27.18
2022-08-11T23:02:31.156Z,27.12
2022-08-11T23:05:18.069Z,27.09
2022-08-11T23:08:03.848Z,27.06
2022-08-11T23:10:49.146Z,27.02
2022-08-11T23:13:34.691Z,26.93
2022-08-11T23:16:21.968Z,26.88
2022-08-11T23:19:07.863Z,26.80
2022-08-11T23:21:55.404Z,26.72
2022-08-11T23:24:41.161Z,26.63
2022-08-11T23:27:27.688Z,26.51
2022-08-11T23:30:14.516Z,26.38
2022-08-11T23:33:04.306Z,26.33
2022-08-11T23:35:51.935Z,26.28
2022-08-11T23:38:43.713Z,26.23
2022-08-11T23:41:29.152Z,26.21
2022-08-11T23:44:14.598Z,26.18
2022-08-11T23:47:00.715Z,26.14
2022-08-11T23:49:46.142Z,26.09
2022-08-11T23:52:31.444Z,25.97
2022-08-11T23:55:18.284Z,25.83
2022-08-11T23:58:03.667Z,25.75
